Time;durP1;ratioP1;P1;durP2;ratioP2;P2;SDS_P1;SDS_P2;PMS_P1;PMS_P2;Temp;Humidity;BMP_temperature;BMP_pressure;BME280_temperature;BME280_humidity;BME280_pressure;Samples;Min_cycle;Max_cycle;Signal;HPM_P1;HPM_P2
2021/05/14 00:00:39;;;;;;;14.10;11.05;;;;;;;10.78;60.01;99814.48;1806903;77;22252;-64
2021/05/14 00:03:13;;;;;;;14.43;10.58;;;;;;;10.70;60.08;99813.34;1853136;77;22179;-64
2021/05/14 00:05:46;;;;;;;14.15;11.38;;;;;;;10.66;60.27;99822.64;1797493;77;22175;-49
2021/05/14 00:08:32;;;;;;;13.20;11.20;;;;;;;10.58;60.44;99828.08;1778287;80;21127;-49
2021/05/14 00:11:05;;;;;;;13.30;10.65;;;;;;;10.60;60.59;99832.86;1800968;77;22154;-48
2021/05/14 00:13:38;;;;;;;15.00;10.45;;;;;;;10.59;60.71;99830.27;1812134;77;22574;-64
2021/05/14 00:16:23;;;;;;;12.82;9.05;;;;;;;10.53;60.87;99834.77;1783304;80;21172;-48
2021/05/14 00:18:56;;;;;;;12.03;8.98;;;;;;;10.57;61.39;99830.29;1809463;77;22162;-65
2021/05/14 00:21:30;;;;;;;14.50;8.98;;;;;;;10.66;61.26;99826.16;1817557;77;22167;-65
2021/05/14 00:24:05;;;;;;;13.22;9.98;;;;;;;10.69;61.33;99827.84;1817159;77;22185;-47
2021/05/14 00:26:38;;;;;;;15.63;9.83;;;;;;;10.72;61.40;99818.56;1794489;77;22571;-65
2021/05/14 00:29:11;;;;;;;12.85;9.95;;;;;;;10.62;61.87;99820.53;1804152;77;22116;-48
2021/05/14 00:31:47;;;;;;;18.40;14.45;;;;;;;10.69;61.75;99823.89;1787904;77;28528;-47
2021/05/14 00:34:33;;;;;;;15.28;11.43;;;;;;;10.65;61.84;99828.80;1762581;81;21158;-66
2021/05/14 00:37:06;;;;;;;15.95;10.60;;;;;;;10.61;62.13;99824.50;1784714;78;22178;-48
2021/05/14 00:39:39;;;;;;;15.50;10.90;;;;;;;10.55;62.48;99825.08;1807332;77;22155;-65
2021/05/14 00:42:24;;;;;;;14.23;10.55;;;;;;;10.51;62.66;99828.66;1759746;81;21103;-49
2021/05/14 00:44:57;;;;;;;15.25;11.18;;;;;;;10.55;62.81;99822.88;1822770;77;22168;-65
2021/05/14 00:47:30;;;;;;;14.60;10.18;;;;;;;10.56;62.94;99816.28;1817275;77;22134;-64
2021/05/14 00:50:17;;;;;;;14.30;10.53;;;;;;;10.55;62.85;99813.66;1786364;80;21087;-67
2021/05/14 00:52:50;;;;;;;13.38;10.35;;;;;;;10.56;62.89;99811.02;1834769;77;22172;-64
2021/05/14 00:55:23;;;;;;;11.83;9.55;;;;;;;10.56;62.99;99807.50;1820178;77;22177;-64
2021/05/14 00:58:09;;;;;;;14.15;11.03;;;;;;;10.53;62.97;99803.62;1764977;80;21547;-48
2021/05/14 01:00:43;;;;;;;13.58;10.50;;;;;;;10.58;62.97;99789.92;1801522;77;22597;-47
2021/05/14 01:03:16;;;;;;;14.68;10.90;;;;;;;10.56;62.89;99787.77;1840969;77;22138;-47
2021/05/14 01:05:49;;;;;;;12.00;10.20;;;;;;;10.59;62.77;99793.43;1793026;77;22194;-64
2021/05/14 01:08:22;;;;;;;12.80;9.85;;;;;;;10.57;62.74;99801.34;1814256;77;22135;-64
2021/05/14 01:10:55;;;;;;;12.45;9.85;;;;;;;10.55;62.83;99795.25;1823596;77;22649;-64
2021/05/14 01:13:30;;;;;;;12.68;10.20;;;;;;;10.54;62.69;99794.83;1822317;77;22545;-47
2021/05/14 01:16:16;;;;;;;12.28;10.08;;;;;;;10.47;62.56;99794.11;1771505;80;21594;-48
2021/05/14 01:18:49;;;;;;;11.97;10.43;;;;;;;10.48;62.60;99789.69;1816725;77;22143;-47
2021/05/14 01:21:22;;;;;;;14.05;10.05;;;;;;;10.45;62.66;99777.48;1810109;77;22213;-64
2021/05/14 01:24:09;;;;;;;13.62;11.03;;;;;;;10.42;62.73;99790.70;1739630;81;21131;-65
2021/05/14 01:26:42;;;;;;;13.80;11.05;;;;;;;10.45;62.44;99788.44;1807551;77;22241;-64
2021/05/14 01:29:15;;;;;;;15.90;10.78;;;;;;;10.41;62.40;99783.70;1811619;77;22162;-64
2021/05/14 01:31:48;;;;;;;14.43;11.03;;;;;;;10.39;62.25;99782.88;1803623;77;22497;-48
2021/05/14 01:34:21;;;;;;;15.05;11.45;;;;;;;10.35;62.23;99775.47;1843491;77;22135;-64
2021/05/14 01:37:06;;;;;;;13.18;10.60;;;;;;;10.30;62.31;99772.50;1782688;80;21745;-65
2021/05/14 01:39:39;;;;;;;13.62;10.80;;;;;;;10.31;62.29;99754.50;1816752;77;22182;-47
2021/05/14 01:42:12;;;;;;;12.10;10.50;;;;;;;10.29;62.14;99751.05;1826509;77;22139;-64
2021/05/14 01:44:45;;;;;;;13.65;10.32;;;;;;;10.24;62.12;99735.38;1819434;77;22160;-47
2021/05/14 01:47:18;;;;;;;13.95;10.63;;;;;;;10.22;61.97;99734.54;1825202;77;22157;-47
2021/05/14 01:50:06;;;;;;;10.72;8.98;;;;;;;10.15;61.95;99730.30;1787975;78;21139;-48
2021/05/14 01:52:39;;;;;;;13.38;10.05;;;;;;;10.16;61.95;99735.98;1824893;77;22182;-50
2021/05/14 01:55:13;;;;;;;14.23;10.85;;;;;;;10.17;61.92;99737.24;1827757;77;22187;-64
2021/05/14 01:57:59;;;;;;;13.20;10.95;;;;;;;10.11;62.13;99743.51;1769540;80;21134;-49
2021/05/14 02:00:33;;;;;;;13.53;10.58;;;;;;;10.15;62.21;99729.87;1809249;77;22194;-65
2021/05/14 02:03:06;;;;;;;13.05;10.30;;;;;;;10.14;62.30;99722.88;1807921;77;22134;-47
2021/05/14 02:05:52;;;;;;;12.65;10.18;;;;;;;10.08;62.33;99723.84;1761293;80;21608;-48
2021/05/14 02:08:25;;;;;;;13.85;10.35;;;;;;;10.08;62.17;99722.53;1819531;77;22157;-47
2021/05/14 02:10:58;;;;;;;11.97;10.60;;;;;;;10.07;62.24;99712.06;1835289;77;22166;-48
2021/05/14 02:13:44;;;;;;;14.98;11.60;;;;;;;10.06;62.33;99720.84;1772313;80;21142;-48
2021/05/14 02:16:17;;;;;;;16.93;12.05;;;;;;;10.07;62.54;99718.17;1806830;77;22201;-64
2021/05/14 02:18:50;;;;;;;17.37;11.70;;;;;;;10.10;62.72;99726.46;1827939;77;22161;-47
2021/05/14 02:21:35;;;;;;;17.82;12.28;;;;;;;10.07;62.82;99723.89;1766170;80;21163;-48
2021/05/14 02:24:09;;;;;;;15.85;12.70;;;;;;;10.14;62.92;99721.56;1834852;77;22567;-47
2021/05/14 02:26:42;;;;;;;17.07;12.30;;;;;;;10.17;63.07;99721.47;1822369;77;22182;-64
2021/05/14 02:29:27;;;;;;;16.67;12.60;;;;;;;10.18;63.26;99730.23;1793065;80;21118;-49
2021/05/14 02:32:05;;;;;;;16.12;12.20;;;;;;;10.30;63.42;99729.10;1819469;77;22181;-64
2021/05/14 02:34:38;;;;;;;17.82;13.72;;;;;;;10.36;63.61;99737.75;1829293;77;22151;-47
2021/05/14 02:37:11;;;;;;;19.75;12.75;;;;;;;10.43;63.84;99745.08;1808943;77;22138;-47
2021/05/14 02:39:57;;;;;;;15.83;11.55;;;;;;;10.49;63.97;99754.16;1792979;80;21293;-65
2021/05/14 02:42:49;;;;;;;15.40;11.70;;;;;;;10.64;64.39;99729.69;1830923;77;22653;-48
2021/05/14 02:45:22;;;;;;;14.55;11.57;;;;;;;10.76;64.31;99725.94;1824171;77;22628;-64
2021/05/14 02:47:55;;;;;;;15.98;10.85;;;;;;;10.85;63.98;99705.95;1819515;77;22162;-64
2021/05/14 02:50:41;;;;;;;16.65;11.73;;;;;;;10.91;63.90;99692.64;1765768;80;21137;-65
2021/05/14 02:53:14;;;;;;;13.70;11.22;;;;;;;11.01;63.98;99703.83;1850759;77;22602;-48
2021/05/14 02:55:53;;;;;;;13.28;10.75;;;;;;;11.09;64.12;99691.77;1806354;77;22188;-64
2021/05/14 02:58:26;;;;;;;15.55;11.80;;;;;;;11.14;64.18;99676.72;1821712;77;22154;-64
2021/05/14 03:01:00;;;;;;;16.87;12.18;;;;;;;11.21;64.22;99683.56;1817161;77;22166;-48
2021/05/14 03:03:45;;;;;;;15.70;12.05;;;;;;;11.22;64.27;99692.31;1759351;80;21257;-65
2021/05/14 03:06:18;;;;;;;14.90;11.25;;;;;;;11.31;64.37;99691.61;1811974;77;22622;-47
2021/05/14 03:08:51;;;;;;;14.75;11.68;;;;;;;11.34;64.51;99685.42;1834079;77;22139;-64
2021/05/14 03:11:25;;;;;;;13.68;11.53;;;;;;;11.36;64.62;99692.83;1814206;77;22594;-64
2021/05/14 03:14:10;;;;;;;12.68;10.23;;;;;;;11.40;64.66;99697.12;1769156;80;21586;-67
2021/05/14 03:16:43;;;;;;;14.63;11.55;;;;;;;11.50;64.80;99703.00;1800833;77;22182;-65
2021/05/14 03:19:16;;;;;;;14.68;11.73;;;;;;;11.56;64.96;99710.73;1853006;77;22571;-67
2021/05/14 03:22:03;;;;;;;16.62;11.28;;;;;;;11.60;64.93;99718.98;1773314;78;21285;-66
2021/05/14 03:24:36;;;;;;;15.05;10.55;;;;;;;11.69;65.03;99721.80;1822699;77;22559;-48
2021/05/14 03:27:09;;;;;;;16.50;10.70;;;;;;;11.77;65.00;99718.95;1819130;77;22127;-48
2021/05/14 03:29:55;;;;;;;14.38;10.30;;;;;;;11.80;64.78;99722.81;1772472;80;21131;-50
2021/05/14 03:32:28;;;;;;;12.37;10.23;;;;;;;11.93;65.22;99721.16;1817997;77;22186;-49
2021/05/14 03:35:03;;;;;;;13.95;10.48;;;;;;;12.00;65.26;99722.76;1830249;77;22249;-64
2021/05/14 03:37:37;;;;;;;18.00;10.82;;;;;;;12.13;65.29;99727.22;1827361;77;22115;-48
2021/05/14 03:40:36;;;;;;;14.80;10.25;;;;;;;12.16;65.03;99726.66;1770441;80;21536;-49
2021/05/14 03:43:09;;;;;;;15.23;10.60;;;;;;;12.28;65.08;99716.66;1834766;77;22148;-48
2021/05/14 03:45:42;;;;;;;13.10;9.58;;;;;;;12.36;64.60;99715.12;1794223;77;22225;-66
2021/05/14 03:48:19;;;;;;;10.72;9.38;;;;;;;12.44;64.96;99717.05;1831569;77;22562;-65
2021/05/14 03:50:53;;;;;;;12.80;9.30;;;;;;;12.51;64.80;99715.11;1816495;77;22183;-65
2021/05/14 03:53:26;;;;;;;13.43;9.38;;;;;;;12.58;64.97;99721.45;1834543;77;22591;-48
2021/05/14 03:55:59;;;;;;;13.85;10.23;;;;;;;12.64;65.00;99717.31;1813372;77;22630;-56
2021/05/14 03:58:45;;;;;;;11.33;8.43;;;;;;;12.70;64.53;99725.48;1762040;81;21123;-67
2021/05/14 04:01:18;;;;;;;17.62;9.95;;;;;;;12.86;64.72;99718.41;1806120;77;22203;-65
2021/05/14 04:03:51;;;;;;;23.52;9.73;;;;;;;12.99;64.29;99722.82;1831856;77;22167;-65
2021/05/14 04:06:25;;;;;;;12.75;10.10;;;;;;;13.16;64.12;99730.19;1829513;77;22191;-65
2021/05/14 04:09:12;;;;;;;11.70;9.38;;;;;;;13.31;64.78;99738.93;1753956;81;21530;-67
2021/05/14 04:17:08;;;;;;;15.88;11.08;;;;;;;13.78;65.18;99732.92;1869072;74;22129;-50
2021/05/14 04:19:55;;;;;;;12.60;10.68;;;;;;;13.83;65.44;99740.70;1861744;77;21661;-52
2021/05/14 04:22:28;;;;;;;11.05;9.25;;;;;;;14.05;65.42;99731.97;1830678;77;22163;-49
2021/05/14 04:25:01;;;;;;;16.70;8.28;;;;;;;14.23;66.16;99723.80;1827492;77;22661;-65
2021/05/14 04:27:34;;;;;;;12.68;7.95;;;;;;;14.43;66.41;99730.53;1834773;77;22611;-50
2021/05/14 04:30:09;;;;;;;8.98;7.22;;;;;;;14.62;66.96;99735.09;1847024;77;22190;-65
2021/05/14 04:32:43;;;;;;;11.50;6.33;;;;;;;14.84;66.79;99736.45;1825358;77;22155;-49
2021/05/14 04:35:16;;;;;;;8.45;5.95;;;;;;;14.99;66.86;99736.77;1820552;77;22641;-50
2021/05/14 04:37:49;;;;;;;9.28;5.47;;;;;;;15.12;66.87;99739.32;1819808;77;22151;-50
2021/05/14 04:40:22;;;;;;;8.38;4.83;;;;;;;15.31;66.44;99746.48;1809377;77;22223;-50
2021/05/14 04:43:00;;;;;;;7.08;3.70;;;;;;;15.46;66.30;99741.86;1827791;77;22139;-50
2021/05/14 04:45:46;;;;;;;5.80;3.62;;;;;;;15.52;66.03;99751.34;1779218;80;21581;-67
2021/05/14 04:48:19;;;;;;;5.92;3.15;;;;;;;15.67;65.84;99748.95;1804870;77;22159;-65
2021/05/14 04:50:52;;;;;;;5.90;3.60;;;;;;;16.71;63.22;99746.94;1821578;77;22177;-65
2021/05/14 04:53:31;;;;;;;5.25;3.12;;;;;;;16.94;62.61;99735.20;1814350;77;22189;-50
2021/05/14 04:56:17;;;;;;;5.47;2.85;;;;;;;16.97;62.52;99740.88;1771886;80;21611;-67
2021/05/14 04:58:50;;;;;;;5.95;2.65;;;;;;;16.29;64.16;99739.12;1805701;77;22205;-51
2021/05/14 05:01:23;;;;;;;4.95;2.77;;;;;;;16.24;64.48;99743.79;1793368;77;22165;-65
2021/05/14 05:03:58;;;;;;;6.17;2.80;;;;;;;16.27;64.50;99744.98;1827438;77;22259;-65
2021/05/14 05:06:44;;;;;;;6.50;2.58;;;;;;;16.33;64.48;99750.01;1795634;78;21264;-67
2021/05/14 05:09:17;;;;;;;3.90;2.22;;;;;;;16.48;64.38;99751.08;1819753;77;22183;-65
2021/05/14 05:11:50;;;;;;;4.70;2.20;;;;;;;16.56;64.19;99752.52;1788129;77;22196;-66
2021/05/14 05:14:23;;;;;;;5.60;2.15;;;;;;;16.62;63.33;99766.84;1820654;77;22598;-66
2021/05/14 05:16:56;;;;;;;5.70;2.02;;;;;;;16.67;62.98;99771.48;1800701;77;22199;-65
2021/05/14 05:19:29;;;;;;;6.45;2.83;;;;;;;16.69;62.87;99769.61;1819499;77;22197;-49
2021/05/14 05:22:08;;;;;;;5.55;3.12;;;;;;;16.74;62.68;99768.93;1892043;74;22116;-49
2021/05/14 05:24:41;;;;;;;5.42;2.55;;;;;;;16.79;62.35;99770.03;1825561;77;22169;-66
2021/05/14 05:27:15;;;;;;;5.97;2.08;;;;;;;16.90;62.53;99770.83;1818956;77;22147;-48
2021/05/14 05:30:01;;;;;;;4.42;2.42;;;;;;;17.00;62.35;99776.13;1711052;83;21923;-49
2021/05/14 05:32:34;;;;;;;4.33;1.85;;;;;;;17.25;62.30;99770.92;1819450;77;22183;-48
2021/05/14 05:35:08;;;;;;;4.72;2.02;;;;;;;17.36;61.41;99780.56;1812231;77;22608;-49
2021/05/14 05:37:54;;;;;;;3.42;1.90;;;;;;;17.43;60.97;99789.56;1758592;81;21565;-49
2021/05/14 05:40:27;;;;;;;6.05;1.95;;;;;;;17.61;60.63;99789.10;1809724;77;22186;-65
2021/05/14 05:43:00;;;;;;;3.90;2.20;;;;;;;17.76;60.54;99793.65;1823438;77;22162;-65
2021/05/14 05:45:47;;;;;;;4.85;1.85;;;;;;;17.85;60.32;99794.96;1790631;78;21127;-68
2021/05/14 05:48:20;;;;;;;4.37;2.20;;;;;;;18.02;59.62;99786.12;1818911;77;22167;-66
2021/05/14 05:50:53;;;;;;;6.15;1.85;;;;;;;18.15;59.67;99791.65;1818700;77;22191;-66
2021/05/14 05:53:26;;;;;;;5.00;2.00;;;;;;;18.35;59.89;99791.06;1806771;77;22142;-66
2021/05/14 05:56:12;;;;;;;5.45;2.08;;;;;;;18.48;59.39;99800.58;1766400;80;21156;-50
2021/05/14 05:58:45;;;;;;;4.37;2.30;;;;;;;18.75;58.87;99793.35;1828439;77;22112;-65
2021/05/14 06:01:18;;;;;;;5.08;2.35;;;;;;;18.90;58.56;99793.80;1814367;77;22178;-65
2021/05/14 06:03:51;;;;;;;4.55;1.95;;;;;;;18.94;59.01;99787.84;1828969;77;22162;-66
2021/05/14 06:06:24;;;;;;;4.78;2.35;;;;;;;18.99;58.51;99785.78;1822015;77;22179;-50
2021/05/14 06:08:57;;;;;;;4.83;2.02;;;;;;;19.61;57.48;99787.55;1828791;77;22120;-66
2021/05/14 06:11:30;;;;;;;4.95;2.10;;;;;;;20.36;55.29;99790.63;1807432;77;22186;-66
2021/05/14 06:14:04;;;;;;;3.72;1.77;;;;;;;20.49;54.32;99794.25;1833737;77;22179;-50
2021/05/14 06:16:37;;;;;;;4.65;1.60;;;;;;;20.63;54.13;99805.41;1806203;77;22163;-50
2021/05/14 06:19:30;;;;;;;5.30;2.00;;;;;;;20.78;53.99;99804.93;1763496;81;21276;-66
2021/05/14 06:22:01;;;;;;;5.95;2.20;;;;;;;21.12;53.62;99795.20;1820647;77;22178;-51
2021/05/14 06:24:34;;;;;;;4.20;1.70;;;;;;;21.31;52.43;99788.14;1828997;77;22123;-50
2021/05/14 06:27:07;;;;;;;3.67;1.70;;;;;;;21.47;51.80;99793.31;1899998;74;22099;-67
2021/05/14 06:29:53;;;;;;;5.00;1.70;;;;;;;21.43;51.38;99798.96;1766636;80;21126;-66
2021/05/14 06:32:26;;;;;;;4.58;1.75;;;;;;;21.47;51.32;99787.97;1833342;77;22176;-50
2021/05/14 06:35:00;;;;;;;9.55;2.60;;;;;;;21.54;51.07;99787.93;1830035;77;22136;-50
2021/05/14 06:37:46;;;;;;;4.35;1.87;;;;;;;21.57;50.64;99782.84;1742615;81;21183;-50
2021/05/14 06:40:19;;;;;;;2.92;1.67;;;;;;;21.77;50.43;99793.55;1808051;77;22175;-65
2021/05/14 06:42:52;;;;;;;4.33;2.10;;;;;;;21.88;50.34;99794.64;1834100;77;22140;-66
2021/05/14 06:45:38;;;;;;;4.33;1.55;;;;;;;21.94;49.79;99784.34;1774513;80;21699;-66
2021/05/14 06:48:14;;;;;;;3.83;1.67;;;;;;;22.21;49.34;99786.08;1850028;77;22135;-50
2021/05/14 06:50:46;;;;;;;3.22;1.40;;;;;;;22.32;49.50;99792.02;1803917;77;28120;-65
2021/05/14 06:53:33;;;;;;;3.50;1.50;;;;;;;22.47;48.10;99800.81;1761733;80;21289;-50
2021/05/14 06:56:06;;;;;;;2.65;1.35;;;;;;;22.71;47.65;99794.66;1810133;77;22654;-65
2021/05/14 06:58:39;;;;;;;4.62;1.65;;;;;;;22.85;47.24;99790.97;1853081;77;22178;-66
2021/05/14 07:01:12;;;;;;;4.03;1.67;;;;;;;22.91;47.16;99787.84;1808284;77;22190;-50
2021/05/14 07:03:49;;;;;;;2.08;1.10;;;;;;;22.99;47.52;99793.47;1834734;77;22179;-50
2021/05/14 07:06:22;;;;;;;4.47;1.55;;;;;;;23.17;46.76;99795.30;1826497;77;22198;-51
2021/05/14 07:08:55;;;;;;;4.85;1.60;;;;;;;23.21;46.67;99793.23;1807994;77;22182;-66
2021/05/14 07:11:41;;;;;;;4.87;1.42;;;;;;;23.28;45.92;99797.67;1735845;80;21641;-50
2021/05/14 07:14:14;;;;;;;5.58;1.52;;;;;;;23.26;46.01;99800.96;1828911;77;22135;-66
2021/05/14 07:16:47;;;;;;;4.08;1.75;;;;;;;23.15;46.61;99801.73;1801871;77;22185;-50
2021/05/14 07:19:33;;;;;;;5.45;1.47;;;;;;;23.12;46.02;99818.94;1793401;80;21137;-51
2021/05/14 07:22:06;;;;;;;3.15;1.40;;;;;;;23.11;45.82;99804.27;1819764;77;22190;-66
2021/05/14 07:24:39;;;;;;;4.92;1.50;;;;;;;23.17;46.57;99801.14;1830735;77;22162;-50
2021/05/14 07:27:13;;;;;;;5.62;1.62;;;;;;;23.26;45.92;99799.62;1832233;77;22128;-66
2021/05/14 07:29:46;;;;;;;2.22;1.30;;;;;;;23.36;45.37;99795.78;1851911;77;22571;-66
2021/05/14 07:32:19;;;;;;;5.15;1.80;;;;;;;23.52;45.68;99797.66;1804016;77;22171;-51
2021/05/14 07:34:53;;;;;;;4.40;1.37;;;;;;;23.78;45.46;99798.84;1821175;77;22163;-51
2021/05/14 07:37:26;;;;;;;4.12;1.47;;;;;;;23.96;45.00;99793.00;1821454;77;22140;-66
2021/05/14 07:39:59;;;;;;;3.42;1.70;;;;;;;24.14;45.00;99794.77;1830769;77;22184;-51
2021/05/14 07:42:32;;;;;;;3.45;1.30;;;;;;;24.18;44.04;99797.11;1831859;77;22167;-51
2021/05/14 07:45:08;;;;;;;4.20;1.70;;;;;;;24.26;44.26;99803.21;1825022;77;22633;-51
2021/05/14 07:47:41;;;;;;;6.62;1.70;;;;;;;24.23;43.79;99800.77;1787739;77;28122;-51
2021/05/14 07:50:14;;;;;;;3.08;1.30;;;;;;;24.18;44.21;99804.30;1816077;77;22596;-51
2021/05/14 07:53:07;;;;;;;4.40;1.55;;;;;;;24.30;43.71;99815.91;1830090;77;22673;-67
2021/05/14 07:55:39;;;;;;;5.10;1.85;;;;;;;24.50;43.87;99805.78;1817425;77;22624;-66
2021/05/14 07:58:12;;;;;;;3.60;1.30;;;;;;;24.80;43.92;99815.06;1817612;77;22689;-51
2021/05/14 08:00:48;;;;;;;2.77;1.15;;;;;;;25.06;42.60;99815.27;1802576;77;22194;-51
2021/05/14 08:03:21;;;;;;;2.60;1.00;;;;;;;25.28;41.81;99814.84;1795760;77;22165;-65
2021/05/14 08:05:54;;;;;;;3.33;1.32;;;;;;;25.38;41.36;99821.18;1803321;77;22191;-51
2021/05/14 08:08:28;;;;;;;3.72;1.60;;;;;;;25.22;41.21;99822.45;1814603;77;22182;-65
2021/05/14 08:11:15;;;;;;;3.67;1.47;;;;;;;25.01;41.59;99826.42;1769663;80;21315;-66
2021/05/14 08:13:49;;;;;;;5.03;1.57;;;;;;;24.13;43.77;99832.90;1820512;77;22152;-51
2021/05/14 08:16:22;;;;;;;4.10;1.62;;;;;;;23.83;44.52;99820.84;1797477;77;22225;-66
2021/05/14 08:18:55;;;;;;;3.67;1.40;;;;;;;23.78;45.32;99823.03;1834768;77;22179;-52
2021/05/14 08:21:45;;;;;;;8.25;2.00;;;;;;;23.84;45.52;99821.69;1709528;82;21700;-53
2021/05/14 08:24:18;;;;;;;2.77;1.27;;;;;;;24.17;44.78;99824.09;1827521;77;22139;-52
2021/05/14 08:26:52;;;;;;;12.88;2.02;;;;;;;24.29;44.37;99819.58;1805193;77;22174;-51
2021/05/14 08:29:25;;;;;;;2.90;1.00;;;;;;;24.58;44.39;99823.14;1834056;77;22136;-66
2021/05/14 08:32:11;;;;;;;2.83;1.10;;;;;;;24.78;42.55;99825.60;1687590;84;21181;-65
2021/05/14 08:34:44;;;;;;;2.30;0.85;;;;;;;24.83;42.15;99816.67;1819230;77;22135;-51
2021/05/14 08:37:17;;;;;;;4.10;1.30;;;;;;;25.02;42.68;99813.33;1834758;77;22152;-52
2021/05/14 08:39:50;;;;;;;5.10;1.05;;;;;;;25.17;41.77;99817.93;1823874;77;22154;-66
2021/05/14 08:42:27;;;;;;;4.62;0.95;;;;;;;25.18;41.81;99817.42;1812362;77;22162;-65
2021/05/14 08:45:01;;;;;;;2.80;1.10;;;;;;;25.12;41.53;99809.38;1822609;77;22582;-66
2021/05/14 08:47:46;;;;;;;3.62;1.07;;;;;;;25.07;41.13;99816.97;1796437;79;21124;-52
2021/05/14 08:50:19;;;;;;;2.55;1.17;;;;;;;24.96;41.18;99807.09;1826093;77;22622;-51
2021/05/14 08:52:53;;;;;;;3.20;1.20;;;;;;;25.02;41.50;99804.38;1807544;77;22184;-66
2021/05/14 08:55:26;;;;;;;2.33;0.90;;;;;;;25.09;41.21;99797.03;1817780;77;22182;-65
2021/05/14 08:57:59;;;;;;;2.17;1.10;;;;;;;25.22;40.48;99803.59;1824222;77;22167;-52
2021/05/14 09:00:32;;;;;;;1.47;0.80;;;;;;;25.35;41.40;99806.11;1811361;77;22175;-66
2021/05/14 09:03:11;;;;;;;2.50;0.90;;;;;;;25.48;40.33;99803.27;1834718;77;22599;-51
2021/05/14 09:05:47;;;;;;;3.50;0.80;;;;;;;25.56;40.26;99799.95;1820385;77;22167;-51
2021/05/14 09:08:32;;;;;;;3.55;0.70;;;;;;;25.68;39.36;99806.12;1774945;80;21134;-52
2021/05/14 09:11:05;;;;;;;1.70;0.88;;;;;;;25.83;39.33;99795.36;1814821;77;22182;-65
2021/05/14 09:13:38;;;;;;;3.30;0.93;;;;;;;26.02;40.07;99799.68;1834764;77;22176;-52
2021/05/14 09:16:14;;;;;;;2.35;1.05;;;;;;;26.20;39.13;99791.86;1813761;77;22186;-66
2021/05/14 09:18:47;;;;;;;3.90;1.17;;;;;;;26.24;39.15;99789.25;1833643;77;22677;-52
2021/05/14 09:21:21;;;;;;;3.25;1.15;;;;;;;26.41;38.59;99787.25;1830238;77;22186;-52
2021/05/14 09:24:08;;;;;;;7.67;1.10;;;;;;;27.47;36.75;99787.25;1746599;80;21610;-67
2021/05/14 09:26:41;;;;;;;1.95;0.80;;;;;;;27.92;36.03;99781.72;1824022;77;22183;-65
2021/05/14 09:29:14;;;;;;;1.67;0.70;;;;;;;28.01;34.94;99786.77;1834864;77;22155;-52
2021/05/14 09:31:47;;;;;;;1.67;0.90;;;;;;;28.17;34.75;99787.02;1806359;77;22190;-66
2021/05/14 09:34:21;;;;;;;2.10;1.07;;;;;;;28.10;34.75;99778.27;1828453;77;22170;-52
2021/05/14 09:36:55;;;;;;;2.22;1.10;;;;;;;28.23;35.59;99782.02;1810684;77;22192;-52
2021/05/14 09:39:28;;;;;;;2.50;0.85;;;;;;;28.27;34.50;99784.78;1821714;77;22166;-52
2021/05/14 09:42:01;;;;;;;1.57;0.72;;;;;;;27.99;34.25;99776.60;1820878;77;22165;-65
2021/05/14 09:44:47;;;;;;;1.77;0.80;;;;;;;27.42;35.66;99786.83;1787200;80;21107;-52
2021/05/14 09:47:25;;;;;;;2.37;0.80;;;;;;;26.60;36.75;99785.63;1825760;77;22154;-52
2021/05/14 09:49:58;;;;;;;2.12;0.80;;;;;;;26.38;38.41;99801.00;1830889;77;22155;-52
2021/05/14 09:52:48;;;;;;;1.47;0.65;;;;;;;27.09;35.75;99789.79;1762066;80;21149;-66
2021/05/14 09:55:23;;;;;;;40.95;4.67;;;;;;;27.17;35.08;99771.52;1831145;77;22178;-65
2021/05/14 09:58:03;;;;;;;2.17;0.90;;;;;;;27.26;35.55;99761.73;1834747;77;22175;-51
2021/05/14 10:00:39;;;;;;;2.15;0.80;;;;;;;27.43;35.52;99760.16;1822337;77;22183;-52
2021/05/14 10:03:17;;;;;;;1.12;0.80;;;;;;;27.55;35.82;99758.19;1830824;77;22602;-51
2021/05/14 10:05:52;;;;;;;2.45;0.60;;;;;;;27.55;34.44;99755.48;1819206;77;22174;-66
2021/05/14 10:08:37;;;;;;;1.50;0.68;;;;;;;27.48;34.54;99764.67;1761763;81;21143;-53
2021/05/14 10:11:11;;;;;;;1.27;0.62;;;;;;;27.62;34.12;99764.72;1797099;77;22166;-65
2021/05/14 10:13:44;;;;;;;3.08;1.02;;;;;;;27.78;34.16;99756.00;1849482;77;22139;-51
2021/05/14 10:16:17;;;;;;;2.08;1.07;;;;;;;27.98;34.23;99749.20;1813204;77;22174;-65
2021/05/14 10:18:50;;;;;;;1.62;0.72;;;;;;;28.03;33.46;99755.03;1834762;77;22172;-65
2021/05/14 10:21:23;;;;;;;1.25;0.62;;;;;;;28.03;34.42;99755.03;1820257;77;22148;-66
2021/05/14 10:23:56;;;;;;;2.67;0.75;;;;;;;28.08;33.39;99762.17;1808439;77;22168;-51
2021/05/14 10:26:38;;;;;;;1.57;0.60;;;;;;;28.07;33.96;99772.64;1805465;77;22158;-51
2021/05/14 10:29:24;;;;;;;7.42;0.88;;;;;;;28.15;33.61;99774.14;1765071;81;21153;-65
2021/05/14 10:31:57;;;;;;;1.57;0.50;;;;;;;28.17;33.29;99766.73;1804021;77;22162;-51
2021/05/14 10:34:33;;;;;;;1.37;0.65;;;;;;;28.27;33.17;99768.03;1806731;77;22938;-51
2021/05/14 10:37:06;;;;;;;6.55;1.45;;;;;;;28.24;31.84;99757.55;1910247;74;20269;-64
2021/05/14 10:39:41;;;;;;;3.50;0.80;;;;;;;28.20;33.01;99761.55;1853065;77;22175;-52
2021/05/14 10:42:40;;;;;;;1.30;0.70;;;;;;;28.30;33.69;99752.86;1771752;80;21131;-50
2021/05/14 10:49:06;;;;;;;1.27;0.70;;;;;;;28.47;32.72;99745.83;1833936;77;22571;-52
2021/05/14 10:51:50;;;;;;;1.72;0.60;;;;;;;28.53;33.55;99747.06;1807639;77;22187;-51
2021/05/14 10:54:44;;;;;;;2.35;0.70;;;;;;;28.69;32.59;99759.94;1834759;77;22128;-65
2021/05/14 10:57:42;;;;;;;1.30;0.80;;;;;;;28.75;32.38;99734.99;1820499;77;22163;-65
2021/05/14 11:00:29;;;;;;;1.95;0.72;;;;;;;28.87;33.62;99745.09;1836944;77;22153;-65
2021/05/14 11:03:14;;;;;;;2.35;0.80;;;;;;;29.22;32.97;99747.45;1834872;77;22171;-65
2021/05/14 11:05:49;;;;;;;2.62;0.70;;;;;;;29.31;32.13;99744.81;1837714;77;22660;-65
2021/05/14 11:08:39;;;;;;;2.80;0.80;;;;;;;29.27;31.66;99743.42;1853179;77;22179;-51
2021/05/14 11:11:13;;;;;;;1.15;0.70;;;;;;;29.20;31.94;99746.75;1810740;77;22611;-65
2021/05/14 11:14:17;;;;;;;3.05;1.17;;;;;;;29.25;32.86;99747.66;1756932;81;21114;-66
2021/05/14 11:16:55;;;;;;;1.25;0.68;;;;;;;29.53;32.43;99736.23;1792291;77;22205;-65
2021/05/14 11:19:30;;;;;;;1.17;0.53;;;;;;;29.60;32.17;99743.71;1822295;77;22154;-65
2021/05/14 11:22:12;;;;;;;1.25;0.62;;;;;;;29.46;31.51;99750.55;1815776;77;22174;-65
2021/05/14 11:25:13;;;;;;;1.52;0.62;;;;;;;29.46;32.01;99744.65;1792825;80;21745;-52
2021/05/14 11:27:48;;;;;;;4.20;0.78;;;;;;;29.68;32.43;99750.55;1834756;77;22136;-65
2021/05/14 11:30:20;;;;;;;1.22;0.65;;;;;;;29.81;31.93;99740.14;1826916;77;22663;-50
2021/05/14 11:32:54;;;;;;;1.80;0.80;;;;;;;29.70;31.86;99740.40;1834838;77;22140;-51
2021/05/14 11:35:29;;;;;;;1.32;0.70;;;;;;;29.45;32.48;99742.94;1824369;77;22162;-65
2021/05/14 11:38:16;;;;;;;2.83;1.22;;;;;;;29.35;31.88;99739.44;1759736;80;21529;-50
2021/05/14 11:40:50;;;;;;;4.22;0.90;;;;;;;29.21;32.29;99745.75;1819469;77;22630;-51
2021/05/14 11:43:24;;;;;;;1.90;1.10;;;;;;;29.15;33.00;99752.30;1834765;77;22151;-51
2021/05/14 11:46:10;;;;;;;3.75;1.17;;;;;;;29.20;33.11;99754.88;1774128;80;21639;-51
2021/05/14 11:48:43;;;;;;;5.12;0.88;;;;;;;29.06;34.46;99742.73;1836755;77;22562;-51
2021/05/14 11:51:22;;;;;;;2.20;0.93;;;;;;;29.04;34.38;99739.85;1811262;77;22210;-64
2021/05/14 11:53:55;;;;;;;4.42;1.00;;;;;;;29.00;33.88;99745.23;1814136;77;22138;-65
2021/05/14 11:56:32;;;;;;;2.30;1.00;;;;;;;28.92;34.48;99737.88;1810694;77;22163;-50
2021/05/14 11:59:05;;;;;;;3.12;1.12;;;;;;;28.73;34.44;99741.03;1819051;77;22612;-51
2021/05/14 12:01:40;;;;;;;1.92;0.98;;;;;;;28.42;35.72;99752.19;1808350;77;22645;-50
2021/05/14 12:04:13;;;;;;;4.15;1.17;;;;;;;27.98;36.28;99741.93;1828913;77;22190;-50
2021/05/14 12:06:48;;;;;;;1.25;0.90;;;;;;;28.06;35.91;99729.02;1823316;77;22186;-65
2021/05/14 12:09:34;;;;;;;6.35;1.32;;;;;;;27.93;36.59;99735.27;1792907;80;21103;-51
2021/05/14 12:12:18;;;;;;;4.05;1.22;;;;;;;28.10;36.52;99725.02;1909500;74;22137;-52
2021/05/14 12:14:54;;;;;;;3.12;1.10;;;;;;;28.20;36.54;99731.78;1836671;77;22640;-51
2021/05/14 12:17:39;;;;;;;6.70;1.35;;;;;;;28.40;36.69;99738.44;1768855;80;21240;-65
2021/05/14 12:20:32;;;;;;;1.72;0.80;;;;;;;28.72;35.45;99731.20;1809087;77;22195;-65
2021/05/14 12:23:07;;;;;;;2.35;1.00;;;;;;;28.91;35.23;99723.99;1826492;77;22131;-65